Time,TemperatureF,DewpointF,PressureIn,WindDirection,WindDirectionDegrees,WindSpeedMPH,WindSpeedGustMPH,Humidity,HourlyPrecipIn,Conditions,Clouds,dailyrainin,SoftwareType,DateUTC
2013-03-15 00:02:00,32.8,31.4,29.53,North,0,0.0,-999.0,94,0.00,,,-99.99,,2013-03-15 08:02:00,
2013-03-15 00:07:00,32.5,31.2,29.53,North,0,0.0,-999.0,94,0.00,,,-99.99,,2013-03-15 08:07:00,
2013-03-15 00:12:00,32.2,30.9,29.53,North,0,0.0,-999.0,94,0.00,,,-99.99,,2013-03-15 08:12:00,
2013-03-15 00:17:00,32.3,31.1,29.53,North,0,0.0,-999.0,95,0.00,,,-99.99,,2013-03-15 08:17:00,
2013-03-15 00:22:00,32.5,31.4,29.53,North,0,0.0,-999.0,95,0.00,,,-99.99,,2013-03-15 08:22:00,
2013-03-15 00:27:00,32.1,31.0,29.53,North,0,0.0,-999.0,95,0.00,,,-99.99,,2013-03-15 08:27:00,
2013-03-15 00:33:00,31.9,30.9,29.53,North,0,0.0,-999.0,96,0.00,,,-99.99,,2013-03-15 08:33:00,
2013-03-15 00:38:00,31.9,30.9,29.53,North,0,0.0,-999.0,95,0.00,,,-99.99,,2013-03-15 08:38:00,
2013-03-15 00:43:00,31.6,30.6,29.53,North,0,0.0,-999.0,96,0.00,,,-99.99,,2013-03-15 08:43:00,
2013-03-15 00:48:00,31.5,30.5,29.53,North,0,0.0,-999.0,96,0.00,,,-99.99,,2013-03-15 08:48:00,
2013-03-15 00:53:00,31.5,30.6,29.53,North,0,0.0,-999.0,96,0.00,,,-99.99,,2013-03-15 08:53:00,
2013-03-15 00:58:00,31.6,30.8,29.53,North,0,0.0,-999.0,96,0.00,,,-99.99,,2013-03-15 08:58:00,
2013-03-15 01:03:00,31.6,30.7,29.53,North,0,0.0,-999.0,96,0.00,,,-99.99,,2013-03-15 09:03:00,
2013-03-15 01:08:00,31.6,30.7,29.53,North,0,0.0,-999.0,96,0.00,,,-99.99,,2013-03-15 09:08:00,
2013-03-15 01:13:00,31.8,31.0,29.53,North,0,0.0,-999.0,96,0.00,,,-99.99,,2013-03-15 09:13:00,
2013-03-15 01:19:00,31.9,31.1,29.53,North,0,0.0,-999.0,96,0.00,,,-99.99,,2013-03-15 09:19:00,
2013-03-15 01:24:00,31.9,31.0,29.53,North,0,0.0,-999.0,96,0.00,,,-99.99,,2013-03-15 09:24:00,
2013-03-15 01:29:00,31.9,31.0,29.53,North,0,0.0,-999.0,96,0.00,,,-99.99,,2013-03-15 09:29:00,
2013-03-15 01:35:00,31.4,30.5,29.53,North,0,0.0,-999.0,96,0.00,,,-99.99,,2013-03-15 09:35:00,
2013-03-15 01:39:00,31.0,30.1,29.53,North,0,0.0,-999.0,96,0.00,,,-99.99,,2013-03-15 09:39:00,
2013-03-15 01:44:00,30.8,29.8,29.53,North,0,0.0,-999.0,96,0.00,,,-99.99,,2013-03-15 09:44:00,
2013-03-15 01:49:00,30.5,29.6,29.53,North,0,0.0,-999.0,96,0.00,,,-99.99,,2013-03-15 09:49:00,
2013-03-15 01:54:00,30.2,29.4,29.53,North,0,0.0,-999.0,96,0.00,,,-99.99,,2013-03-15 09:54:00,
2013-03-15 01:59:00,30.0,29.2,29.54,North,0,0.0,-999.0,96,0.00,,,-99.99,,2013-03-15 09:59:00,
2013-03-15 02:04:00,29.7,28.9,29.54,North,0,0.0,-999.0,96,0.00,,,-99.99,,2013-03-15 10:04:00,
2013-03-15 02:09:00,29.7,28.9,29.54,North,0,0.0,-999.0,96,0.00,,,-99.99,,2013-03-15 10:09:00,
2013-03-15 02:14:00,29.7,28.9,29.54,North,0,0.0,-999.0,96,0.00,,,-99.99,,2013-03-15 10:14:00,
2013-03-15 02:19:00,29.7,29.0,29.54,North,0,0.0,-999.0,97,0.00,,,-99.99,,2013-03-15 10:19:00,
2013-03-15 02:24:00,29.9,29.2,29.54,North,0,0.0,-999.0,97,0.00,,,-99.99,,2013-03-15 10:24:00,
2013-03-15 02:29:00,29.8,29.0,29.54,North,0,0.0,-999.0,97,0.00,,,-99.99,,2013-03-15 10:29:00,
2013-03-15 02:34:00,30.0,29.2,29.54,North,0,0.0,-999.0,97,0.00,,,-99.99,,2013-03-15 10:34:00,
2013-03-15 02:39:00,29.9,29.2,29.54,North,0,0.0,-999.0,97,0.00,,,-99.99,,2013-03-15 10:39:00,
2013-03-15 02:44:00,29.5,28.8,29.54,North,0,0.0,-999.0,97,0.00,,,-99.99,,2013-03-15 10:44:00,
2013-03-15 02:49:00,29.8,29.0,29.54,North,0,0.0,-999.0,97,0.00,,,-99.99,,2013-03-15 10:49:00,
2013-03-15 02:54:00,29.5,28.7,29.54,North,0,0.0,-999.0,96,0.00,,,-99.99,,2013-03-15 10:54:00,
2013-03-15 02:59:00,29.4,28.6,29.53,North,0,0.0,-999.0,97,0.00,,,-99.99,,2013-03-15 10:59:00,
2013-03-15 03:04:00,29.2,28.5,29.53,North,0,0.0,-999.0,97,0.00,,,-99.99,,2013-03-15 11:04:00,
2013-03-15 03:09:00,29.1,28.4,29.53,North,0,0.0,-999.0,97,0.00,,,-99.99,,2013-03-15 11:09:00,
2013-03-15 03:17:00,29.2,28.6,29.53,North,0,0.0,-999.0,97,0.00,,,-99.99,,2013-03-15 11:17:00,
2013-03-15 03:22:00,29.1,28.5,29.53,North,0,0.0,-999.0,97,0.00,,,-99.99,,2013-03-15 11:22:00,
2013-03-15 03:27:00,29.2,28.5,29.53,North,0,0.0,-999.0,97,0.00,,,-99.99,,2013-03-15 11:27:00,
2013-03-15 03:32:00,29.1,28.5,29.53,North,0,0.0,-999.0,97,0.00,,,-99.99,,2013-03-15 11:32:00,
2013-03-15 03:37:00,29.3,28.7,29.53,North,0,0.0,-999.0,97,0.00,,,-99.99,,2013-03-15 11:37:00,
2013-03-15 03:42:00,29.2,28.6,29.53,North,0,0.0,-999.0,97,0.00,,,-99.99,,2013-03-15 11:42:00,
2013-03-15 03:47:00,29.3,28.6,29.53,North,0,0.0,-999.0,97,0.00,,,-99.99,,2013-03-15 11:47:00,
2013-03-15 03:52:00,29.5,28.9,29.53,North,0,0.0,-999.0,97,0.00,,,-99.99,,2013-03-15 11:52:00,
2013-03-15 03:58:00,29.7,29.1,29.53,North,0,0.0,-999.0,97,0.00,,,-99.99,,2013-03-15 11:58:00,
2013-03-15 04:03:00,30.1,29.5,29.52,North,0,0.0,-999.0,97,0.00,,,-99.99,,2013-03-15 12:03:00,
2013-03-15 04:08:00,30.4,29.8,29.52,North,0,0.0,-999.0,97,0.00,,,-99.99,,2013-03-15 12:08:00,
2013-03-15 04:13:00,30.4,29.8,29.52,North,0,0.0,-999.0,97,0.00,,,-99.99,,2013-03-15 12:13:00,
2013-03-15 04:18:00,30.7,30.0,29.52,North,0,0.0,-999.0,97,0.00,,,-99.99,,2013-03-15 12:18:00,
2013-03-15 04:23:00,30.6,29.9,29.52,North,0,0.0,-999.0,97,0.00,,,-99.99,,2013-03-15 12:23:00,
2013-03-15 04:28:00,30.6,29.9,29.52,North,0,0.0,-999.0,97,0.00,,,-99.99,,2013-03-15 12:28:00,
2013-03-15 04:33:00,30.6,29.9,29.52,North,0,0.0,-999.0,97,0.00,,,-99.99,,2013-03-15 12:33:00,
2013-03-15 04:38:00,30.6,30.0,29.52,North,0,0.0,-999.0,97,0.00,,,-99.99,,2013-03-15 12:38:00,
2013-03-15 04:43:00,30.8,30.1,29.52,North,0,0.0,-999.0,97,0.00,,,-99.99,,2013-03-15 12:43:00,
2013-03-15 04:48:00,30.9,30.2,29.52,North,0,0.0,-999.0,97,0.00,,,-99.99,,2013-03-15 12:48:00,
2013-03-15 04:53:00,30.7,30.0,29.52,North,0,0.0,-999.0,97,0.00,,,-99.99,,2013-03-15 12:53:00,
2013-03-15 04:58:00,30.6,29.9,29.52,North,0,0.0,-999.0,97,0.00,,,-99.99,,2013-03-15 12:58:00,
2013-03-15 05:03:00,30.4,29.6,29.52,North,0,0.0,-999.0,96,0.00,,,-99.99,,2013-03-15 13:03:00,
2013-03-15 05:08:00,29.8,29.1,29.52,North,0,0.0,-999.0,96,0.00,,,-99.99,,2013-03-15 13:08:00,
2013-03-15 05:14:00,29.5,28.7,29.52,North,0,0.0,-999.0,96,0.00,,,-99.99,,2013-03-15 13:14:00,
2013-03-15 05:19:00,29.2,28.5,29.52,North,0,0.0,-999.0,97,0.00,,,-99.99,,2013-03-15 13:19:00,
2013-03-15 05:24:00,29.0,28.3,29.52,North,0,0.0,-999.0,97,0.00,,,-99.99,,2013-03-15 13:24:00,
2013-03-15 05:29:00,28.5,27.9,29.52,North,0,0.0,-999.0,97,0.00,,,-99.99,,2013-03-15 13:29:00,
2013-03-15 05:34:00,28.4,27.7,29.52,North,0,0.0,-999.0,97,0.00,,,-99.99,,2013-03-15 13:34:00,
2013-03-15 05:39:00,28.1,27.4,29.52,North,0,0.0,-999.0,97,0.00,,,-99.99,,2013-03-15 13:39:00,
2013-03-15 05:44:00,27.9,27.3,29.52,North,0,0.0,-999.0,97,0.00,,,-99.99,,2013-03-15 13:44:00,
2013-03-15 05:49:00,28.0,27.3,29.52,North,0,0.0,-999.0,97,0.00,,,-99.99,,2013-03-15 13:49:00,
2013-03-15 05:54:00,27.8,27.2,29.52,North,0,0.0,-999.0,97,0.00,,,-99.99,,2013-03-15 13:54:00,
2013-03-15 05:59:00,27.7,27.1,29.51,North,0,0.0,-999.0,97,0.00,,,-99.99,,2013-03-15 13:59:00,
2013-03-15 06:04:00,27.5,26.9,29.51,North,0,0.0,-999.0,97,0.00,,,-99.99,,2013-03-15 14:04:00,
2013-03-15 06:09:00,27.5,26.8,29.51,North,0,0.0,-999.0,97,0.00,,,-99.99,,2013-03-15 14:09:00,
2013-03-15 06:14:00,27.3,26.6,29.51,North,0,0.0,-999.0,97,0.00,,,-99.99,,2013-03-15 14:14:00,
2013-03-15 06:19:00,27.4,26.8,29.51,North,0,0.0,-999.0,97,0.00,,,-99.99,,2013-03-15 14:19:00,
2013-03-15 06:24:00,27.3,26.6,29.51,North,0,0.0,-999.0,97,0.00,,,-99.99,,2013-03-15 14:24:00,
2013-03-15 06:29:00,27.2,26.6,29.51,North,0,0.0,-999.0,97,0.00,,,-99.99,,2013-03-15 14:29:00,
2013-03-15 06:34:00,27.1,26.5,29.51,North,0,0.0,-999.0,97,0.00,,,-99.99,,2013-03-15 14:34:00,
2013-03-15 06:39:00,27.1,26.5,29.51,North,0,0.0,-999.0,97,0.00,,,-99.99,,2013-03-15 14:39:00,
2013-03-15 06:44:00,27.0,26.4,29.51,North,0,0.0,-999.0,97,0.00,,,-99.99,,2013-03-15 14:44:00,
2013-03-15 06:49:00,27.2,26.6,29.51,North,0,0.0,-999.0,97,0.00,,,-99.99,,2013-03-15 14:49:00,
2013-03-15 06:54:00,27.1,26.5,29.51,North,0,0.0,-999.0,97,0.00,,,-99.99,,2013-03-15 14:54:00,
2013-03-15 06:59:00,27.0,26.3,29.51,North,0,0.0,-999.0,97,0.00,,,-99.99,,2013-03-15 14:59:00,
2013-03-15 07:04:00,26.9,26.3,29.51,North,0,0.0,-999.0,97,0.00,,,-99.99,,2013-03-15 15:04:00,
2013-03-15 07:09:00,26.7,26.1,29.51,North,0,0.0,-999.0,97,0.00,,,-99.99,,2013-03-15 15:09:00,
2013-03-15 07:14:00,26.6,26.0,29.51,North,0,0.0,-999.0,97,0.00,,,-99.99,,2013-03-15 15:14:00,
2013-03-15 07:19:00,26.5,25.8,29.51,North,0,0.0,-999.0,97,0.00,,,-99.99,,2013-03-15 15:19:00,
2013-03-15 07:24:00,26.6,26.0,29.51,North,0,0.0,-999.0,97,0.00,,,-99.99,,2013-03-15 15:24:00,
2013-03-15 07:29:00,26.5,25.9,29.51,North,0,0.0,-999.0,97,0.00,,,-99.99,,2013-03-15 15:29:00,
2013-03-15 07:34:00,26.4,25.8,29.51,North,0,0.0,-999.0,97,0.00,,,-99.99,,2013-03-15 15:34:00,
2013-03-15 07:39:00,26.4,25.7,29.51,North,0,0.0,-999.0,97,0.00,,,-99.99,,2013-03-15 15:39:00,
2013-03-15 07:47:00,26.4,25.7,29.51,North,0,0.0,-999.0,97,0.00,,,-99.99,,2013-03-15 15:47:00,
2013-03-15 07:52:00,26.0,25.3,29.51,North,0,0.0,-999.0,97,0.00,,,-99.99,,2013-03-15 15:52:00,
2013-03-15 07:57:00,26.2,25.6,29.51,North,0,0.0,-999.0,97,0.00,,,-99.99,,2013-03-15 15:57:00,
2013-03-15 08:03:00,26.2,25.5,29.52,North,0,0.0,-999.0,97,0.00,,,-99.99,,2013-03-15 16:03:00,
2013-03-15 08:08:00,26.0,25.3,29.52,North,0,0.0,-999.0,97,0.00,,,-99.99,,2013-03-15 16:08:00,
2013-03-15 08:13:00,25.9,25.2,29.52,North,0,0.0,-999.0,97,0.00,,,-99.99,,2013-03-15 16:13:00,
2013-03-15 08:18:00,25.8,25.1,29.52,North,0,0.0,-999.0,97,0.00,,,-99.99,,2013-03-15 16:18:00,
2013-03-15 08:23:00,25.8,25.2,29.52,North,0,0.0,-999.0,97,0.00,,,-99.99,,2013-03-15 16:23:00,
2013-03-15 08:28:00,25.9,25.3,29.52,North,0,0.0,-999.0,97,0.00,,,-99.99,,2013-03-15 16:28:00,
2013-03-15 08:33:00,25.9,25.2,29.52,North,0,0.0,-999.0,97,0.00,,,-99.99,,2013-03-15 16:33:00,
2013-03-15 08:38:00,25.8,25.2,29.52,North,0,0.0,-999.0,97,0.00,,,-99.99,,2013-03-15 16:38:00,
2013-03-15 08:43:00,26.1,25.5,29.52,North,0,0.0,-999.0,97,0.00,,,-99.99,,2013-03-15 16:43:00,
2013-03-15 08:48:00,26.2,25.5,29.52,North,0,0.0,-999.0,97,0.00,,,-99.99,,2013-03-15 16:48:00,
2013-03-15 08:53:00,26.0,25.4,29.52,North,0,0.0,-999.0,97,0.00,,,-99.99,,2013-03-15 16:53:00,
2013-03-15 08:58:00,26.3,25.6,29.52,North,0,0.0,-999.0,97,0.00,,,-99.99,,2013-03-15 16:58:00,
2013-03-15 09:03:00,26.2,25.5,29.52,North,0,0.0,-999.0,97,0.00,,,-99.99,,2013-03-15 17:03:00,
2013-03-15 09:08:00,26.2,25.5,29.52,North,0,0.0,-999.0,96,0.00,,,-99.99,,2013-03-15 17:08:00,
2013-03-15 09:13:00,26.1,25.4,29.52,North,0,0.0,-999.0,96,0.00,,,-99.99,,2013-03-15 17:13:00,
2013-03-15 09:18:00,26.1,25.3,29.52,North,0,0.0,-999.0,96,0.00,,,-99.99,,2013-03-15 17:18:00,
2013-03-15 09:23:00,26.3,25.6,29.52,North,0,0.0,-999.0,97,0.00,,,-99.99,,2013-03-15 17:23:00,
2013-03-15 09:28:00,26.8,26.2,29.52,North,0,0.0,-999.0,97,0.00,,,-99.99,,2013-03-15 17:28:00,
2013-03-15 09:33:00,28.1,27.5,29.52,North,0,0.0,-999.0,97,0.00,,,-99.99,,2013-03-15 17:33:00,
2013-03-15 09:38:00,29.8,29.4,29.52,North,0,0.0,-999.0,98,0.00,,,-99.99,,2013-03-15 17:38:00,
2013-03-15 09:43:00,30.5,29.6,29.52,North,0,0.0,-999.0,96,0.00,,,-99.99,,2013-03-15 17:43:00,
2013-03-15 09:49:00,31.9,31.0,29.52,North,0,0.0,-999.0,96,0.00,,,-99.99,,2013-03-15 17:49:00,
2013-03-15 09:54:00,31.9,29.8,29.52,North,0,0.0,-999.0,91,0.00,,,-99.99,,2013-03-15 17:54:00,
2013-03-15 09:59:00,32.3,30.0,29.53,North,0,0.0,-999.0,91,0.00,,,-99.99,,2013-03-15 17:59:00,
2013-03-15 10:04:00,33.0,29.7,29.53,North,0,0.0,-999.0,87,0.00,,,-99.99,,2013-03-15 18:04:00,
2013-03-15 10:09:00,32.0,28.7,29.53,North,0,0.0,-999.0,87,0.00,,,-99.99,,2013-03-15 18:09:00,
2013-03-15 10:14:00,31.8,28.4,29.53,North,0,0.0,-999.0,87,0.00,,,-99.99,,2013-03-15 18:14:00,
2013-03-15 10:19:00,31.8,28.5,29.53,North,0,0.0,-999.0,87,0.00,,,-99.99,,2013-03-15 18:19:00,
2013-03-15 10:25:00,31.9,28.4,29.53,North,0,0.0,-999.0,87,0.00,,,-99.99,,2013-03-15 18:25:00,
2013-03-15 10:30:00,32.7,29.3,29.53,North,0,0.0,-999.0,86,0.00,,,-99.99,,2013-03-15 18:30:00,
2013-03-15 10:35:00,33.2,29.4,29.53,North,0,0.0,-999.0,85,0.00,,,-99.99,,2013-03-15 18:35:00,
2013-03-15 10:40:00,34.9,30.9,29.53,North,0,0.0,-999.0,84,0.00,,,-99.99,,2013-03-15 18:40:00,
2013-03-15 10:45:00,36.2,30.8,29.53,North,0,0.0,-999.0,80,0.00,,,-99.99,,2013-03-15 18:45:00,
2013-03-15 10:50:00,37.4,30.8,29.53,North,0,0.0,-999.0,76,0.00,,,-99.99,,2013-03-15 18:50:00,
2013-03-15 10:55:00,36.6,30.2,29.53,North,0,0.0,-999.0,77,0.00,,,-99.99,,2013-03-15 18:55:00,
2013-03-15 11:00:00,35.5,29.6,29.54,North,0,0.0,-999.0,78,0.00,,,-99.99,,2013-03-15 19:00:00,
2013-03-15 11:05:00,36.0,30.4,29.54,North,0,0.0,-999.0,79,0.00,,,-99.99,,2013-03-15 19:05:00,
2013-03-15 11:10:00,36.8,30.6,29.54,North,0,0.0,-999.0,78,0.00,,,-99.99,,2013-03-15 19:10:00,
2013-03-15 11:15:00,34.8,29.6,29.54,North,0,0.0,-999.0,81,0.00,,,-99.99,,2013-03-15 19:15:00,
2013-03-15 11:20:00,34.7,29.8,29.54,North,0,0.0,-999.0,82,0.00,,,-99.99,,2013-03-15 19:20:00,
2013-03-15 11:25:00,34.4,29.8,29.54,North,0,0.0,-999.0,83,0.00,,,-99.99,,2013-03-15 19:25:00,
2013-03-15 11:30:00,35.0,30.0,29.54,North,0,0.0,-999.0,81,0.00,,,-99.99,,2013-03-15 19:30:00,
2013-03-15 11:35:00,34.9,30.2,29.54,North,0,0.0,-999.0,83,0.00,,,-99.99,,2013-03-15 19:35:00,
2013-03-15 11:40:00,34.5,29.9,29.54,North,0,0.0,-999.0,82,0.00,,,-99.99,,2013-03-15 19:40:00,
2013-03-15 11:45:00,34.2,29.4,29.54,North,0,0.0,-999.0,82,0.00,,,-99.99,,2013-03-15 19:45:00,
2013-03-15 11:50:00,34.6,29.9,29.54,North,0,0.0,-999.0,82,0.00,,,-99.99,,2013-03-15 19:50:00,
2013-03-15 11:55:00,34.5,29.7,29.54,North,0,0.0,-999.0,82,0.00,,,-99.99,,2013-03-15 19:55:00,
2013-03-15 12:00:00,34.7,29.8,29.55,North,0,0.0,-999.0,81,0.00,,,-99.99,,2013-03-15 20:00:00,
2013-03-15 12:05:00,34.6,29.7,29.55,North,0,0.0,-999.0,82,0.00,,,-99.99,,2013-03-15 20:05:00,
2013-03-15 12:10:00,34.9,30.1,29.55,North,0,0.0,-999.0,82,0.00,,,-99.99,,2013-03-15 20:10:00,
2013-03-15 12:15:00,34.6,29.5,29.55,North,0,0.0,-999.0,81,0.00,,,-99.99,,2013-03-15 20:15:00,
2013-03-15 12:20:00,34.6,29.5,29.55,North,0,0.0,-999.0,81,0.00,,,-99.99,,2013-03-15 20:20:00,
2013-03-15 12:25:00,34.7,29.6,29.55,North,0,0.0,-999.0,81,0.00,,,-99.99,,2013-03-15 20:25:00,
2013-03-15 12:30:00,34.5,29.5,29.55,North,0,0.0,-999.0,81,0.00,,,-99.99,,2013-03-15 20:30:00,
2013-03-15 12:35:00,34.5,29.5,29.55,North,0,0.0,-999.0,81,0.00,,,-99.99,,2013-03-15 20:35:00,
2013-03-15 12:40:00,34.2,29.2,29.55,North,0,0.0,-999.0,81,0.00,,,-99.99,,2013-03-15 20:40:00,
2013-03-15 12:45:00,34.5,29.3,29.55,North,0,0.0,-999.0,81,0.00,,,-99.99,,2013-03-15 20:45:00,
2013-03-15 12:50:00,34.8,29.6,29.55,North,0,0.0,-999.0,81,0.00,,,-99.99,,2013-03-15 20:50:00,
2013-03-15 12:55:00,34.6,29.9,29.55,North,0,0.0,-999.0,82,0.00,,,-99.99,,2013-03-15 20:55:00,
2013-03-15 13:00:00,34.4,29.6,29.55,North,0,0.0,-999.0,82,0.00,,,-99.99,,2013-03-15 21:00:00,
2013-03-15 13:05:00,34.4,30.1,29.55,North,0,0.0,-999.0,84,0.00,,,-99.99,,2013-03-15 21:05:00,
2013-03-15 13:10:00,35.2,30.1,29.55,North,0,0.0,-999.0,81,0.00,,,-99.99,,2013-03-15 21:10:00,
2013-03-15 13:15:00,35.3,30.1,29.55,North,0,0.0,-999.0,81,0.00,,,-99.99,,2013-03-15 21:15:00,
2013-03-15 13:20:00,34.1,29.6,29.55,North,0,0.0,-999.0,83,0.00,,,-99.99,,2013-03-15 21:20:00,
2013-03-15 13:25:00,34.6,30.2,29.55,North,0,0.0,-999.0,83,0.00,,,-99.99,,2013-03-15 21:25:00,
2013-03-15 13:30:00,35.1,30.0,29.55,North,0,0.0,-999.0,81,0.01,,,-99.99,,2013-03-15 21:30:00,
2013-03-15 13:35:00,35.0,29.8,29.55,North,0,0.0,-999.0,81,0.01,,,-99.99,,2013-03-15 21:35:00,
2013-03-15 13:40:00,35.7,30.5,29.55,North,0,0.0,-999.0,81,0.01,,,-99.99,,2013-03-15 21:40:00,
2013-03-15 13:45:00,36.1,30.5,29.55,North,0,0.0,-999.0,79,0.01,,,-99.99,,2013-03-15 21:45:00,
2013-03-15 13:50:00,35.8,30.6,29.55,North,0,0.0,-999.0,81,0.01,,,-99.99,,2013-03-15 21:50:00,
2013-03-15 13:55:00,35.3,30.3,29.55,North,0,0.0,-999.0,81,0.01,,,-99.99,,2013-03-15 21:55:00,
2013-03-15 14:00:00,35.4,30.3,29.57,North,0,0.0,-999.0,81,0.00,,,-99.99,,2013-03-15 22:00:00,
2013-03-15 14:05:00,35.8,30.4,29.57,North,0,0.0,-999.0,80,0.00,,,-99.99,,2013-03-15 22:05:00,
2013-03-15 14:10:00,35.8,30.3,29.57,North,0,0.0,-999.0,80,0.00,,,-99.99,,2013-03-15 22:10:00,
2013-03-15 14:15:00,35.3,30.5,29.57,North,0,0.0,-999.0,82,0.00,,,-99.99,,2013-03-15 22:15:00,
2013-03-15 14:20:00,35.7,30.8,29.57,North,0,0.0,-999.0,82,0.00,,,-99.99,,2013-03-15 22:20:00,
2013-03-15 14:25:00,35.3,29.9,29.57,North,0,0.0,-999.0,80,0.00,,,-99.99,,2013-03-15 22:25:00,
2013-03-15 14:30:00,35.2,30.4,29.57,North,0,0.0,-999.0,82,0.00,,,-99.99,,2013-03-15 22:30:00,
2013-03-15 14:35:00,35.3,29.9,29.57,North,0,0.0,-999.0,80,0.00,,,-99.99,,2013-03-15 22:35:00,
2013-03-15 14:40:00,35.0,29.3,29.57,North,0,0.0,-999.0,79,0.00,,,-99.99,,2013-03-15 22:40:00,
2013-03-15 14:45:00,34.7,29.2,29.57,North,0,0.0,-999.0,80,0.00,,,-99.99,,2013-03-15 22:45:00,
2013-03-15 14:50:00,35.2,29.5,29.57,North,0,0.0,-999.0,79,0.00,,,-99.99,,2013-03-15 22:50:00,
2013-03-15 14:55:00,35.0,29.5,29.57,North,0,0.0,-999.0,80,0.00,,,-99.99,,2013-03-15 22:55:00,
2013-03-15 15:00:00,35.1,29.9,29.57,North,0,0.0,-999.0,81,0.00,,,-99.99,,2013-03-15 23:00:00,
2013-03-15 15:05:00,34.9,29.3,29.57,North,0,0.0,-999.0,80,0.00,,,-99.99,,2013-03-15 23:05:00,
2013-03-15 15:10:00,34.9,29.4,29.57,North,0,0.0,-999.0,80,0.00,,,-99.99,,2013-03-15 23:10:00,
2013-03-15 15:15:00,35.1,30.0,29.57,North,0,0.0,-999.0,81,0.00,,,-99.99,,2013-03-15 23:15:00,
2013-03-15 15:20:00,35.2,29.6,29.57,North,0,0.0,-999.0,79,0.00,,,-99.99,,2013-03-15 23:20:00,
2013-03-15 15:25:00,35.3,29.3,29.57,North,0,0.0,-999.0,78,0.00,,,-99.99,,2013-03-15 23:25:00,
2013-03-15 15:30:00,34.9,29.4,29.57,North,0,0.0,-999.0,80,0.00,,,-99.99,,2013-03-15 23:30:00,
2013-03-15 15:35:00,34.7,29.0,29.57,North,0,0.0,-999.0,79,0.00,,,-99.99,,2013-03-15 23:35:00,
2013-03-15 15:40:00,34.9,29.2,29.57,North,0,0.0,-999.0,79,0.00,,,-99.99,,2013-03-15 23:40:00,
2013-03-15 15:45:00,34.4,29.7,29.57,North,0,0.0,-999.0,82,0.00,,,-99.99,,2013-03-15 23:45:00,
2013-03-15 15:50:00,34.5,29.0,29.57,North,0,0.0,-999.0,80,0.00,,,-99.99,,2013-03-15 23:50:00,
2013-03-15 15:55:00,34.1,29.2,29.57,North,0,0.0,-999.0,82,0.00,,,-99.99,,2013-03-15 23:55:00,
2013-03-15 16:00:00,34.0,28.7,29.58,North,0,0.0,-999.0,80,0.00,,,-99.99,,2013-03-16 00:00:00,
2013-03-15 16:05:00,33.6,28.4,29.58,North,0,0.0,-999.0,80,0.00,,,-99.99,,2013-03-16 00:05:00,
2013-03-15 16:10:00,33.6,28.6,29.58,North,0,0.0,-999.0,81,0.00,,,-99.99,,2013-03-16 00:10:00,
2013-03-15 16:15:00,33.3,28.0,29.58,North,0,0.0,-999.0,80,0.00,,,-99.99,,2013-03-16 00:15:00,
2013-03-15 16:20:00,33.6,28.6,29.58,North,0,0.0,-999.0,81,0.00,,,-99.99,,2013-03-16 00:20:00,
2013-03-15 16:25:00,33.4,28.1,29.58,North,0,0.0,-999.0,80,0.00,,,-99.99,,2013-03-16 00:25:00,
2013-03-15 16:30:00,33.1,27.6,29.58,North,0,0.0,-999.0,79,0.00,,,-99.99,,2013-03-16 00:30:00,
2013-03-15 16:35:00,33.2,27.6,29.58,North,0,0.0,-999.0,79,0.00,,,-99.99,,2013-03-16 00:35:00,
2013-03-15 16:40:00,33.5,27.9,29.58,North,0,0.0,-999.0,79,0.00,,,-99.99,,2013-03-16 00:40:00,
2013-03-15 16:45:00,33.1,27.5,29.58,North,0,0.0,-999.0,79,0.00,,,-99.99,,2013-03-16 00:45:00,
2013-03-15 16:50:00,33.0,27.4,29.58,North,0,0.0,-999.0,79,0.00,,,-99.99,,2013-03-16 00:50:00,
2013-03-15 16:55:00,33.5,28.4,29.58,North,0,0.0,-999.0,81,0.00,,,-99.99,,2013-03-16 00:55:00,
2013-03-15 17:00:00,33.5,28.5,29.59,North,0,0.0,-999.0,81,0.00,,,-99.99,,2013-03-16 01:00:00,
2013-03-15 17:05:00,33.1,27.8,29.59,North,0,0.0,-999.0,80,0.00,,,-99.99,,2013-03-16 01:05:00,
2013-03-15 17:10:00,33.2,28.2,29.59,North,0,0.0,-999.0,81,0.00,,,-99.99,,2013-03-16 01:10:00,
2013-03-15 17:15:00,33.3,28.2,29.59,North,0,0.0,-999.0,81,0.00,,,-99.99,,2013-03-16 01:15:00,
2013-03-15 17:20:00,33.2,26.8,29.59,North,0,0.0,-999.0,77,0.00,,,-99.99,,2013-03-16 01:20:00,
2013-03-15 17:25:00,33.3,27.4,29.59,North,0,0.0,-999.0,78,0.00,,,-99.99,,2013-03-16 01:25:00,
2013-03-15 17:30:00,33.0,27.5,29.59,North,0,0.0,-999.0,79,0.00,,,-99.99,,2013-03-16 01:30:00,
2013-03-15 17:35:00,32.9,27.8,29.59,North,0,0.0,-999.0,81,0.00,,,-99.99,,2013-03-16 01:35:00,
2013-03-15 17:40:00,32.6,27.2,29.59,North,0,0.0,-999.0,80,0.00,,,-99.99,,2013-03-16 01:40:00,
2013-03-15 17:45:00,32.5,27.8,29.59,North,0,0.0,-999.0,82,0.00,,,-99.99,,2013-03-16 01:45:00,
2013-03-15 17:50:00,32.4,27.3,29.59,North,0,0.0,-999.0,81,0.00,,,-99.99,,2013-03-16 01:50:00,
2013-03-15 17:55:00,32.4,27.3,29.59,North,0,0.0,-999.0,81,0.00,,,-99.99,,2013-03-16 01:55:00,
2013-03-15 18:00:00,32.3,27.3,29.61,North,0,0.0,-999.0,81,0.00,,,-99.99,,2013-03-16 02:00:00,
2013-03-15 18:05:00,31.9,26.9,29.61,North,0,0.0,-999.0,81,0.00,,,-99.99,,2013-03-16 02:05:00,
2013-03-15 18:10:00,31.7,26.6,29.61,North,0,0.0,-999.0,81,0.00,,,-99.99,,2013-03-16 02:10:00,
2013-03-15 18:15:00,31.5,26.3,29.61,North,0,0.0,-999.0,80,0.00,,,-99.99,,2013-03-16 02:15:00,
2013-03-15 18:20:00,31.5,26.5,29.61,North,0,0.0,-999.0,81,0.00,,,-99.99,,2013-03-16 02:20:00,
2013-03-15 18:25:00,31.5,26.7,29.61,North,0,0.0,-999.0,82,0.00,,,-99.99,,2013-03-16 02:25:00,
2013-03-15 18:30:00,31.0,26.2,29.61,North,0,0.0,-999.0,82,0.00,,,-99.99,,2013-03-16 02:30:00,
2013-03-15 18:35:00,31.0,26.0,29.61,North,0,0.0,-999.0,81,0.00,,,-99.99,,2013-03-16 02:35:00,
2013-03-15 18:40:00,31.2,26.5,29.61,North,0,0.0,-999.0,82,0.00,,,-99.99,,2013-03-16 02:40:00,
2013-03-15 18:45:00,30.9,26.3,29.61,North,0,0.0,-999.0,82,0.00,,,-99.99,,2013-03-16 02:45:00,
2013-03-15 18:50:00,30.7,25.8,29.61,North,0,0.0,-999.0,81,0.00,,,-99.99,,2013-03-16 02:50:00,
2013-03-15 18:55:00,30.8,25.8,29.61,North,0,0.0,-999.0,81,0.00,,,-99.99,,2013-03-16 02:55:00,
2013-03-15 19:00:00,30.3,25.4,29.62,North,0,0.0,-999.0,81,0.00,,,-99.99,,2013-03-16 03:00:00,
2013-03-15 19:05:00,30.2,25.3,29.62,North,0,0.0,-999.0,81,0.00,,,-99.99,,2013-03-16 03:05:00,
2013-03-15 19:10:00,30.1,25.4,29.62,North,0,0.0,-999.0,82,0.00,,,-99.99,,2013-03-16 03:10:00,
2013-03-15 19:15:00,29.8,24.9,29.62,North,0,0.0,-999.0,81,0.00,,,-99.99,,2013-03-16 03:15:00,
2013-03-15 19:20:00,29.9,24.9,29.62,North,0,0.0,-999.0,81,0.00,,,-99.99,,2013-03-16 03:20:00,
2013-03-15 19:25:00,29.6,24.8,29.62,North,0,0.0,-999.0,82,0.00,,,-99.99,,2013-03-16 03:25:00,
2013-03-15 19:30:00,29.6,24.6,29.62,North,0,0.0,-999.0,81,0.00,,,-99.99,,2013-03-16 03:30:00,
2013-03-15 19:35:00,29.5,24.7,29.62,North,0,0.0,-999.0,81,0.00,,,-99.99,,2013-03-16 03:35:00,
2013-03-15 19:40:00,29.3,24.6,29.62,North,0,0.0,-999.0,82,0.00,,,-99.99,,2013-03-16 03:40:00,
2013-03-15 19:45:00,29.2,24.4,29.62,North,0,0.0,-999.0,81,0.00,,,-99.99,,2013-03-16 03:45:00,
2013-03-15 19:50:00,29.2,24.5,29.62,North,0,0.0,-999.0,82,0.00,,,-99.99,,2013-03-16 03:50:00,
2013-03-15 19:55:00,29.0,24.2,29.62,North,0,0.0,-999.0,81,0.00,,,-99.99,,2013-03-16 03:55:00,
2013-03-15 20:00:00,28.8,23.9,29.63,North,0,0.0,-999.0,81,0.00,,,-99.99,,2013-03-16 04:00:00,
2013-03-15 20:01:00,28.9,23.8,29.63,North,0,0.0,-999.0,81,0.00,,,-99.99,,2013-03-16 04:01:00,
2013-03-15 20:07:00,28.9,24.0,29.63,North,0,0.0,-999.0,81,0.00,,,-99.99,,2013-03-16 04:07:00,
2013-03-15 20:12:00,28.7,23.6,29.63,North,0,0.0,-999.0,81,0.00,,,-99.99,,2013-03-16 04:12:00,
2013-03-15 20:17:00,28.9,24.3,29.63,North,0,0.0,-999.0,82,0.00,,,-99.99,,2013-03-16 04:17:00,
2013-03-15 20:22:00,28.5,23.5,29.63,North,0,0.0,-999.0,81,0.00,,,-99.99,,2013-03-16 04:22:00,
2013-03-15 20:27:00,28.7,23.8,29.63,North,0,0.0,-999.0,81,0.00,,,-99.99,,2013-03-16 04:27:00,
2013-03-15 20:32:00,28.4,23.5,29.63,North,0,0.0,-999.0,81,0.00,,,-99.99,,2013-03-16 04:32:00,
2013-03-15 20:37:00,28.6,23.7,29.63,North,0,0.0,-999.0,81,0.00,,,-99.99,,2013-03-16 04:37:00,
2013-03-15 20:42:00,28.4,23.8,29.63,North,0,0.0,-999.0,82,0.00,,,-99.99,,2013-03-16 04:42:00,
2013-03-15 20:46:00,28.4,23.9,29.63,North,0,0.0,-999.0,83,0.00,,,-99.99,,2013-03-16 04:46:00,
2013-03-15 20:52:00,28.4,24.0,29.63,North,0,0.0,-999.0,83,0.00,,,-99.99,,2013-03-16 04:52:00,
2013-03-15 20:57:00,28.3,23.8,29.63,North,0,0.0,-999.0,83,0.00,,,-99.99,,2013-03-16 04:57:00,
2013-03-15 21:02:00,28.3,24.0,29.65,North,0,0.0,-999.0,83,0.00,,,-99.99,,2013-03-16 05:02:00,
2013-03-15 21:08:00,28.4,24.0,29.65,North,0,0.0,-999.0,83,0.00,,,-99.99,,2013-03-16 05:08:00,
2013-03-15 21:13:00,28.4,24.0,29.65,North,0,0.0,-999.0,83,0.00,,,-99.99,,2013-03-16 05:13:00,
2013-03-15 21:18:00,28.3,23.9,29.65,North,0,0.0,-999.0,83,0.00,,,-99.99,,2013-03-16 05:18:00,
2013-03-15 21:23:00,28.2,23.5,29.65,North,0,0.0,-999.0,82,0.00,,,-99.99,,2013-03-16 05:23:00,
2013-03-15 21:28:00,27.9,23.4,29.65,North,0,0.0,-999.0,82,0.00,,,-99.99,,2013-03-16 05:28:00,
2013-03-15 21:33:00,27.9,23.6,29.65,North,0,0.0,-999.0,83,0.00,,,-99.99,,2013-03-16 05:33:00,
2013-03-15 21:38:00,27.9,23.7,29.65,North,0,0.0,-999.0,83,0.00,,,-99.99,,2013-03-16 05:38:00,
2013-03-15 21:43:00,27.9,23.6,29.65,North,0,0.0,-999.0,83,0.00,,,-99.99,,2013-03-16 05:43:00,
2013-03-15 21:48:00,27.7,23.4,29.65,North,0,0.0,-999.0,83,0.00,,,-99.99,,2013-03-16 05:48:00,
2013-03-15 21:53:00,27.6,23.5,29.65,North,0,0.0,-999.0,84,0.00,,,-99.99,,2013-03-16 05:53:00,
2013-03-15 21:58:00,27.6,23.5,29.65,North,0,0.0,-999.0,84,0.00,,,-99.99,,2013-03-16 05:58:00,
2013-03-15 22:03:00,27.5,23.6,29.65,North,0,0.0,-999.0,85,0.00,,,-99.99,,2013-03-16 06:03:00,
2013-03-15 22:08:00,27.6,23.5,29.65,North,0,0.0,-999.0,84,0.00,,,-99.99,,2013-03-16 06:08:00,
2013-03-15 22:13:00,27.4,23.2,29.65,North,0,0.0,-999.0,83,0.00,,,-99.99,,2013-03-16 06:13:00,
2013-03-15 22:18:00,27.3,23.4,29.65,North,0,0.0,-999.0,84,0.00,,,-99.99,,2013-03-16 06:18:00,
2013-03-15 22:23:00,27.4,23.4,29.65,North,0,0.0,-999.0,84,0.00,,,-99.99,,2013-03-16 06:23:00,
2013-03-15 22:28:00,27.4,23.1,29.65,North,0,0.0,-999.0,83,0.00,,,-99.99,,2013-03-16 06:28:00,
2013-03-15 22:33:00,27.4,23.3,29.65,North,0,0.0,-999.0,84,0.00,,,-99.99,,2013-03-16 06:33:00,
2013-03-15 22:38:00,27.2,22.9,29.65,North,0,0.0,-999.0,83,0.00,,,-99.99,,2013-03-16 06:38:00,
2013-03-15 22:43:00,27.0,23.0,29.65,North,0,0.0,-999.0,84,0.00,,,-99.99,,2013-03-16 06:43:00,
2013-03-15 22:48:00,27.0,22.9,29.65,North,0,0.0,-999.0,84,0.00,,,-99.99,,2013-03-16 06:48:00,
2013-03-15 22:53:00,27.0,22.9,29.65,North,0,0.0,-999.0,84,0.00,,,-99.99,,2013-03-16 06:53:00,
2013-03-15 22:58:00,27.0,23.0,29.65,North,0,0.0,-999.0,84,0.00,,,-99.99,,2013-03-16 06:58:00,
2013-03-15 23:03:00,26.8,22.6,29.68,North,0,0.0,-999.0,84,0.00,,,-99.99,,2013-03-16 07:03:00,
2013-03-15 23:08:00,26.6,22.6,29.68,North,0,0.0,-999.0,84,0.00,,,-99.99,,2013-03-16 07:08:00,
2013-03-15 23:13:00,26.7,22.9,29.68,North,0,0.0,-999.0,85,0.00,,,-99.99,,2013-03-16 07:13:00,
2013-03-15 23:18:00,26.6,22.9,29.68,North,0,0.0,-999.0,85,0.00,,,-99.99,,2013-03-16 07:18:00,
2013-03-15 23:23:00,26.5,22.8,29.68,North,0,0.0,-999.0,85,0.00,,,-99.99,,2013-03-16 07:23:00,
2013-03-15 23:28:00,26.5,22.8,29.68,North,0,0.0,-999.0,85,0.00,,,-99.99,,2013-03-16 07:28:00,
2013-03-15 23:33:00,26.5,22.9,29.68,North,0,0.0,-999.0,86,0.00,,,-99.99,,2013-03-16 07:33:00,
2013-03-15 23:38:00,26.5,22.8,29.68,North,0,0.0,-999.0,85,0.00,,,-99.99,,2013-03-16 07:38:00,
2013-03-15 23:43:00,26.4,22.6,29.68,North,0,0.0,-999.0,85,0.00,,,-99.99,,2013-03-16 07:43:00,
2013-03-15 23:48:00,26.1,22.4,29.68,North,0,0.0,-999.0,85,0.00,,,-99.99,,2013-03-16 07:48:00,
2013-03-15 23:53:00,26.3,22.6,29.68,North,0,0.0,-999.0,85,0.00,,,-99.99,,2013-03-16 07:53:00,
2013-03-15 23:58:00,26.3,22.3,29.68,North,0,0.0,-999.0,84,0.00,,,-99.99,,2013-03-16 07:58:00,